Swallowfield Close, Crewe weather

Latitude N 53° 04' 54" Longitude W 02° 27' 25" Elevation 52 m Grid Ref SJ69475393

This page shows a table of observations data for today using the Cumulus "recent history" webtags facility. It is experimental only. The table shows data observations at 10 minute intervals for the 8 hours prior to 01:40 on Tuesday 24 November i.e. the time this page was processed by Cumulus. Ideally in the long-term this will be replaced by a script to read data/realtimelog.txt for the current (or selectable) date and display all the observations for the applicable meteorological date (24/11/2020 in this case) starting at midnight (rollover time). This will fix the start of the observations table to a defined point.

The graph shows the same data but at 5-minute intervals.


Table of observations data (at 10-minute intervals) for Swallowfield Close, Crewe since 16:40 on 24/11/2020
Observations
Time Temp Wind Chill Dewpoint Pressure Wind Speed Wind Gust Wind Dir Humidity Rainfall
16:40 9.3 °C 8.0 °C 5.8 °C 1016.3 hPa 9.0 km/h 14.8 km/h 79 % 0.0 mm
16:50 9.2 °C 8.2 °C 5.8 °C 1016.4 hPa 7.6 km/h 12.2 km/h 79 % 0.0 mm
17:00 9.2 °C 8.0 °C 5.8 °C 1016.2 hPa 8.1 km/h 14.8 km/h 79 % 0.0 mm
17:10 9.2 °C 7.7 °C 5.8 °C 1016.2 hPa 9.7 km/h 14.8 km/h 79 % 0.3 mm
17:20 9.3 °C 7.6 °C 6.0 °C 1016.0 hPa 11.1 km/h 17.3 km/h 80 % 0.3 mm
17:30 9.4 °C 7.4 °C 6.1 °C 1015.9 hPa 13.4 km/h 18.4 km/h 80 % 0.3 mm
17:40 9.5 °C 8.0 °C 6.2 °C 1016.0 hPa 10.5 km/h 15.8 km/h 80 % 0.3 mm
17:50 9.5 °C 8.3 °C 6.2 °C 1015.9 hPa 8.5 km/h 12.2 km/h 80 % 0.3 mm
18:00 9.5 °C 8.1 °C 6.2 °C 1015.8 hPa 9.9 km/h 19.4 km/h 80 % 0.3 mm
18:10 9.6 °C 7.9 °C 6.3 °C 1015.8 hPa 11.6 km/h 18.4 km/h 80 % 0.3 mm
18:20 9.7 °C 8.3 °C 6.4 °C 1015.6 hPa 10.1 km/h 17.3 km/h 80 % 0.3 mm
18:30 9.8 °C 8.2 °C 6.7 °C 1015.5 hPa 11.5 km/h 18.4 km/h 81 % 0.3 mm
18:40 9.9 °C 8.3 °C 6.8 °C 1015.5 hPa 11.2 km/h 13.3 km/h 81 % 0.3 mm
18:50 10.1 °C 10.1 °C 6.8 °C 1015.6 hPa 13.2 km/h 17.3 km/h 80 % 0.3 mm
19:00 10.1 °C 10.1 °C 6.6 °C 1015.4 hPa 10.0 km/h 14.8 km/h 79 % 0.3 mm
19:10 10.1 °C 10.1 °C 6.6 °C 1015.4 hPa 13.1 km/h 14.8 km/h 79 % 0.3 mm
19:20 10.1 °C 10.1 °C 6.6 °C 1015.5 hPa 7.7 km/h 11.2 km/h 79 % 0.3 mm
19:30 10.1 °C 10.1 °C 6.6 °C 1015.4 hPa 9.6 km/h 18.4 km/h 79 % 0.3 mm
19:40 10.1 °C 10.1 °C 6.6 °C 1015.4 hPa 9.3 km/h 15.8 km/h 79 % 0.3 mm
19:50 10.1 °C 10.1 °C 6.6 °C 1015.4 hPa 11.9 km/h 18.4 km/h 79 % 0.3 mm
20:00 10.1 °C 10.1 °C 6.6 °C 1015.4 hPa 7.6 km/h 11.2 km/h 79 % 0.3 mm
20:10 10.2 °C 10.2 °C 6.7 °C 1015.4 hPa 7.4 km/h 9.7 km/h 79 % 0.3 mm
20:20 10.1 °C 10.1 °C 6.6 °C 1015.2 hPa 7.9 km/h 13.3 km/h 79 % 0.3 mm
20:30 10.2 °C 10.2 °C 6.7 °C 1015.1 hPa 8.7 km/h 12.2 km/h 79 % 0.3 mm
20:40 10.7 °C 10.7 °C 7.2 °C 1014.9 hPa 11.5 km/h 17.3 km/h 79 % 0.3 mm
20:50 10.5 °C 10.5 °C 7.0 °C 1014.9 hPa 14.6 km/h 25.6 km/h 79 % 0.3 mm
21:00 10.8 °C 10.8 °C 7.1 °C 1014.8 hPa 12.9 km/h 24.5 km/h 78 % 0.3 mm
21:10 10.9 °C 10.9 °C 7.2 °C 1014.9 hPa 10.9 km/h 12.2 km/h 78 % 0.3 mm
21:20 10.9 °C 10.9 °C 7.0 °C 1014.8 hPa 11.5 km/h 17.3 km/h 77 % 0.3 mm
21:30 10.8 °C 10.8 °C 6.9 °C 1014.7 hPa 9.0 km/h 13.3 km/h 77 % 0.3 mm
21:40 10.9 °C 10.9 °C 7.2 °C 1014.7 hPa 10.2 km/h 18.4 km/h 78 % 0.3 mm
21:50 10.9 °C 10.9 °C 7.0 °C 1014.6 hPa 10.1 km/h 17.3 km/h 77 % 0.3 mm
22:00 10.8 °C 10.8 °C 6.9 °C 1014.4 hPa 7.2 km/h 13.3 km/h 77 % 0.3 mm
22:10 10.8 °C 10.8 °C 7.1 °C 1014.3 hPa 8.3 km/h 17.3 km/h 78 % 0.3 mm
22:20 10.8 °C 10.8 °C 7.1 °C 1014.3 hPa 9.0 km/h 11.2 km/h 78 % 0.3 mm
22:30 10.8 °C 10.8 °C 7.1 °C 1014.1 hPa 7.5 km/h 12.2 km/h 78 % 0.3 mm
22:40 10.8 °C 10.8 °C 7.1 °C 1014.0 hPa 7.1 km/h 13.3 km/h 78 % 0.3 mm
22:50 10.4 °C 10.4 °C 6.7 °C 1014.0 hPa 7.9 km/h 11.2 km/h 78 % 0.3 mm
23:00 10.3 °C 10.3 °C 6.6 °C 1013.9 hPa 7.8 km/h 20.9 km/h 78 % 0.3 mm
23:10 10.3 °C 10.3 °C 6.8 °C 1013.7 hPa 4.2 km/h 8.6 km/h 79 % 0.3 mm
23:20 10.4 °C 10.4 °C 7.1 °C 1013.5 hPa 11.5 km/h 14.8 km/h 80 % 0.3 mm
23:30 10.4 °C 10.4 °C 7.1 °C 1013.6 hPa 10.1 km/h 13.3 km/h 80 % 0.3 mm
23:40 10.4 °C 10.4 °C 7.1 °C 1013.4 hPa 10.2 km/h 15.8 km/h 80 % 0.3 mm
23:50 10.8 °C 10.8 °C 7.5 °C 1013.4 hPa 9.7 km/h 15.8 km/h 80 % 0.3 mm
00:00 10.8 °C 10.8 °C 7.5 °C 1013.2 hPa 10.1 km/h 17.3 km/h 80 % 0.0 mm
00:10 10.9 °C 10.9 °C 7.8 °C 1013.3 hPa 10.5 km/h 14.8 km/h 81 % 0.0 mm
00:20 10.9 °C 10.9 °C 7.8 °C 1013.0 hPa 9.6 km/h 12.2 km/h 81 % 0.0 mm
00:30 10.8 °C 10.8 °C 7.7 °C 1013.0 hPa 9.1 km/h 13.3 km/h 81 % 0.0 mm
00:40 10.8 °C 10.8 °C 7.7 °C 1012.9 hPa 9.3 km/h 14.8 km/h 81 % 0.0 mm
00:50 11.0 °C 11.0 °C 7.7 °C 1012.9 hPa 8.9 km/h 15.8 km/h 80 % 0.0 mm
01:00 11.0 °C 11.0 °C 7.7 °C 1012.7 hPa 9.2 km/h 13.3 km/h 80 % 0.0 mm
01:10 11.0 °C 11.0 °C 7.7 °C 1012.6 hPa 11.5 km/h 13.3 km/h 80 % 0.0 mm
01:20 10.9 °C 10.9 °C 7.8 °C 1012.3 hPa 8.7 km/h 13.3 km/h 81 % 0.0 mm
01:30 10.9 °C 10.9 °C 8.0 °C 1012.2 hPa 9.7 km/h 15.8 km/h 82 % 0.0 mm
:now: :trends: :gauges: :today/yesterday: :observations:
:month/year: :monthly records: :all-time records: :annual data: :noaa reports: :seasonal averages:
:mobile: :forum: :webcam: :system:



Page updated 24/11/2020 01:40:10
powered by Cumulus v1.9.4 (1099)